createdAt,value
2016-03-05T00:00:13.707Z,22.3
2016-03-05T00:01:14.819Z,22.3
2016-03-05T00:02:15.946Z,22.3
2016-03-05T00:03:16.902Z,22.3
2016-03-05T00:04:17.951Z,22.3
2016-03-05T00:05:19.017Z,22.3
2016-03-05T00:06:20.082Z,22.3
2016-03-05T00:07:20.882Z,22.2
2016-03-05T00:08:22.056Z,22.3
2016-03-05T00:09:22.996Z,22.3
2016-03-05T00:10:24.170Z,22.3
2016-03-05T00:11:25.033Z,22.3
2016-03-05T00:12:25.942Z,22.2
2016-03-05T00:13:26.851Z,22.2
2016-03-05T00:14:27.792Z,22.3
2016-03-05T00:15:28.606Z,22.3
2016-03-05T00:16:29.408Z,22.2
2016-03-05T00:17:30.209Z,22.2
2016-03-05T00:18:31.008Z,22.3
2016-03-05T00:19:31.838Z,22.3
2016-03-05T00:20:32.616Z,22.2
2016-03-05T00:21:33.482Z,22.3
2016-03-05T00:22:34.457Z,22.3
2016-03-05T00:23:35.511Z,22.3
2016-03-05T00:24:36.314Z,22.3
2016-03-05T00:25:37.248Z,22.2
2016-03-05T00:26:37.902Z,22.2
2016-03-05T00:27:38.713Z,22.2
2016-03-05T00:28:39.778Z,22.3
2016-03-05T00:29:40.817Z,22.3
2016-03-05T00:30:41.881Z,22.3
2016-03-05T00:31:42.992Z,22.3
2016-03-05T00:32:44.008Z,22.2
2016-03-05T00:33:45.042Z,22.3
2016-03-05T00:34:45.855Z,22.2
2016-03-05T00:35:46.919Z,22.3
2016-03-05T00:36:47.718Z,22.3
2016-03-05T00:37:48.782Z,22.2
2016-03-05T00:38:49.955Z,22.2
2016-03-05T00:39:50.910Z,22.2
2016-03-05T00:40:52.068Z,22.3
2016-03-05T00:41:52.932Z,22.2
2016-03-05T00:42:53.825Z,22.2
2016-03-05T00:43:54.874Z,22.2
2016-03-05T00:44:55.940Z,22.2
2016-03-05T00:45:57.161Z,22.2
2016-03-05T00:46:58.054Z,22.2
2016-03-05T00:47:59.119Z,22.2
2016-03-05T00:49:00.185Z,22.2
2016-03-05T00:50:01.250Z,22.2
2016-03-05T00:51:02.300Z,22.2
2016-03-05T00:52:03.411Z,22.2
2016-03-05T00:53:04.414Z,22.2
2016-03-05T00:54:05.588Z,22.2
2016-03-05T00:55:06.529Z,22.2
2016-03-05T00:56:07.704Z,22.1
2016-03-05T00:57:08.644Z,22.2
2016-03-05T00:58:09.709Z,22.2
2016-03-05T00:59:10.774Z,22.2
2016-03-05T01:00:11.824Z,22.1
2016-03-05T01:01:12.888Z,22.1
2016-03-05T01:02:14.000Z,22.1
2016-03-05T01:03:15.004Z,22.1
2016-03-05T01:04:16.069Z,22.1
2016-03-05T01:05:17.119Z,22.1
2016-03-05T01:06:18.183Z,22.1
2016-03-05T01:07:19.296Z,22.1
2016-03-05T01:08:20.298Z,22.1
2016-03-05T01:09:21.364Z,22.1
2016-03-05T01:10:22.429Z,22.1
2016-03-05T01:11:23.604Z,22
2016-03-05T01:12:24.731Z,22
2016-03-05T01:13:25.609Z,22
2016-03-05T01:14:26.673Z,22
2016-03-05T01:15:27.785Z,22
2016-03-05T01:16:28.913Z,22
2016-03-05T01:17:29.838Z,22
2016-03-05T01:18:30.904Z,22
2016-03-05T01:19:32.093Z,22
2016-03-05T01:20:33.270Z,21.9
2016-03-05T01:21:34.086Z,21.9
2016-03-05T01:22:35.244Z,21.9
2016-03-05T01:23:36.201Z,21.9
2016-03-05T01:24:37.267Z,21.9
2016-03-05T01:25:38.440Z,21.9
2016-03-05T01:26:39.505Z,21.9
2016-03-05T01:27:40.445Z,21.9
2016-03-05T01:28:41.511Z,21.9
2016-03-05T01:29:42.936Z,21.9
2016-03-05T01:30:44.125Z,21.9
2016-03-05T01:31:45.206Z,21.9
2016-03-05T01:32:46.553Z,21.9
2016-03-05T01:33:47.556Z,21.8
2016-03-05T01:34:48.871Z,21.8
2016-03-05T01:35:50.185Z,21.8
2016-03-05T01:36:51.501Z,21.8
2016-03-05T01:37:52.817Z,21.8
2016-03-05T01:38:54.257Z,21.8
2016-03-05T01:39:55.447Z,21.8
2016-03-05T01:40:56.777Z,21.8
2016-03-05T01:41:58.077Z,21.8
2016-03-05T01:42:59.454Z,21.8
2016-03-05T01:44:00.442Z,21.8
2016-03-05T01:45:01.757Z,21.8
2016-03-05T01:46:03.104Z,21.7
2016-03-05T01:47:04.388Z,21.8
2016-03-05T01:48:05.703Z,21.7
2016-03-05T01:49:07.034Z,21.7
2016-03-05T01:50:08.333Z,21.7
2016-03-05T01:51:09.648Z,21.7
2016-03-05T01:52:10.963Z,21.7
2016-03-05T01:53:12.342Z,21.7
2016-03-05T01:54:13.345Z,21.7
2016-03-05T01:55:14.659Z,21.7
2016-03-05T01:56:15.974Z,21.7
2016-03-05T01:57:17.289Z,21.7
2016-03-05T01:58:18.605Z,21.7
2016-03-05T01:59:20.170Z,21.7
2016-03-05T02:00:21.735Z,21.7
2016-03-05T02:01:23.301Z,21.7
2016-03-05T02:02:24.881Z,21.7
2016-03-05T02:03:26.618Z,21.7
2016-03-05T02:04:27.496Z,21.7
2016-03-05T02:05:29.076Z,21.7
2016-03-05T02:06:30.642Z,21.6
2016-03-05T02:07:32.208Z,21.7
2016-03-05T02:08:33.819Z,21.6
2016-03-05T02:09:35.355Z,21.6
2016-03-05T02:10:36.905Z,21.7
2016-03-05T02:11:38.595Z,21.7
2016-03-05T02:12:40.051Z,21.7
2016-03-05T02:13:41.727Z,21.6
2016-03-05T02:14:42.682Z,21.6
2016-03-05T02:15:44.263Z,21.6
2016-03-05T02:16:45.831Z,21.6
2016-03-05T02:17:47.538Z,21.6
2016-03-05T02:18:48.946Z,21.7
2016-03-05T02:19:50.527Z,21.6
2016-03-05T02:20:52.107Z,21.6
2016-03-05T02:21:53.704Z,21.6
2016-03-05T02:22:55.255Z,21.6
2016-03-05T02:23:56.866Z,21.6
2016-03-05T02:24:57.869Z,21.6
2016-03-05T02:25:59.559Z,21.6
2016-03-05T02:27:00.999Z,21.6
2016-03-05T02:28:02.564Z,21.6
2016-03-05T02:29:04.129Z,21.6
2016-03-05T02:30:05.710Z,21.6
2016-03-05T02:31:07.276Z,21.6
2016-03-05T02:32:08.965Z,21.6
2016-03-05T02:33:10.421Z,21.6
2016-03-05T02:34:12.159Z,21.6
2016-03-05T02:35:13.037Z,21.6
2016-03-05T02:36:14.617Z,21.6
2016-03-05T02:37:16.167Z,21.5
2016-03-05T02:38:17.748Z,21.6
2016-03-05T02:39:19.312Z,21.6
2016-03-05T02:40:20.878Z,21.6
2016-03-05T02:41:22.442Z,21.6
2016-03-05T02:42:24.008Z,21.5
2016-03-05T02:43:25.573Z,21.5
2016-03-05T02:44:27.217Z,21.6
2016-03-05T02:45:28.220Z,21.6
2016-03-05T02:46:29.769Z,21.5
2016-03-05T02:47:31.334Z,21.5
2016-03-05T02:48:33.024Z,21.5
2016-03-05T02:49:34.480Z,21.5
2016-03-05T02:50:36.044Z,21.5
2016-03-05T02:51:37.614Z,21.5
2016-03-05T02:52:39.194Z,21.5
2016-03-05T02:53:40.760Z,21.5
2016-03-05T02:54:42.496Z,21.5
2016-03-05T02:55:43.499Z,21.5
2016-03-05T02:56:44.954Z,21.5
2016-03-05T02:57:46.520Z,21.5
2016-03-05T02:58:48.101Z,21.5
2016-03-05T02:59:49.651Z,21.5
2016-03-05T03:00:51.231Z,21.5
2016-03-05T03:01:52.796Z,21.5
2016-03-05T03:02:54.361Z,21.5
2016-03-05T03:03:55.942Z,21.5
2016-03-05T03:04:57.554Z,21.5
2016-03-05T03:05:58.556Z,21.5
2016-03-05T03:07:00.123Z,21.5
2016-03-05T03:08:01.687Z,21.5
2016-03-05T03:09:03.378Z,21.5
2016-03-05T03:10:04.942Z,21.5
2016-03-05T03:11:06.398Z,21.5
2016-03-05T03:12:07.979Z,21.5
2016-03-05T03:13:09.529Z,21.5
2016-03-05T03:14:11.095Z,21.5
2016-03-05T03:15:12.722Z,21.5
2016-03-05T03:16:13.834Z,21.5
2016-03-05T03:17:15.289Z,21.4
2016-03-05T03:18:16.855Z,21.4
2016-03-05T03:19:18.419Z,21.4
2016-03-05T03:20:20.111Z,21.4
2016-03-05T03:21:21.676Z,21.4
2016-03-05T03:22:23.241Z,21.4
2016-03-05T03:23:24.697Z,21.4
2016-03-05T03:24:26.386Z,21.4
2016-03-05T03:25:27.889Z,21.4
2016-03-05T03:26:28.907Z,21.4
2016-03-05T03:27:30.457Z,21.4
2016-03-05T03:28:32.022Z,21.4
2016-03-05T03:29:33.588Z,21.4
2016-03-05T03:30:35.169Z,21.4
2016-03-05T03:31:36.734Z,21.4
2016-03-05T03:32:38.299Z,21.4
2016-03-05T03:33:39.867Z,21.4
2016-03-05T03:34:41.432Z,21.4
2016-03-05T03:35:43.060Z,21.4
2016-03-05T03:36:44.062Z,21.4
2016-03-05T03:37:45.628Z,21.4
2016-03-05T03:38:47.317Z,21.4
2016-03-05T03:39:48.898Z,21.4
2016-03-05T03:40:50.464Z,21.4
2016-03-05T03:41:51.904Z,21.4
2016-03-05T03:42:53.485Z,21.4
2016-03-05T03:43:55.035Z,21.4
2016-03-05T03:44:56.615Z,21.4
2016-03-05T03:45:58.227Z,21.4
2016-03-05T03:46:59.230Z,21.4
2016-03-05T03:48:00.826Z,21.4
2016-03-05T03:49:02.375Z,21.4
2016-03-05T03:50:03.942Z,21.4
2016-03-05T03:51:05.506Z,21.4
2016-03-05T03:52:07.087Z,21.4
2016-03-05T03:53:08.761Z,21.4
2016-03-05T03:54:10.327Z,21.4
2016-03-05T03:55:11.782Z,21.4
2016-03-05T03:56:13.410Z,21.4
2016-03-05T03:57:14.413Z,21.4
2016-03-05T03:58:15.978Z,21.4
2016-03-05T03:59:17.560Z,21.4
2016-03-05T04:00:19.233Z,21.4
2016-03-05T04:01:20.799Z,21.4
2016-03-05T04:02:22.270Z,21.4
2016-03-05T04:03:23.820Z,21.4
2016-03-05T04:04:25.556Z,21.4
2016-03-05T04:05:26.966Z,21.4
2016-03-05T04:06:28.579Z,21.4
2016-03-05T04:07:29.581Z,21.4
2016-03-05T04:08:31.146Z,21.4
2016-03-05T04:09:32.726Z,21.4
2016-03-05T04:10:34.292Z,21.4
2016-03-05T04:11:35.967Z,21.4
2016-03-05T04:12:37.423Z,21.4
2016-03-05T04:13:39.004Z,21.4
2016-03-05T04:14:40.553Z,21.4
2016-03-05T04:15:42.136Z,21.4
2016-03-05T04:16:43.872Z,21.4
2016-03-05T04:17:44.750Z,21.4
2016-03-05T04:18:46.442Z,21.4
2016-03-05T04:19:47.897Z,21.4
2016-03-05T04:20:49.462Z,21.4
2016-03-05T04:21:51.028Z,21.4
2016-03-05T04:22:52.717Z,21.4
2016-03-05T04:23:54.172Z,21.4
2016-03-05T04:24:55.738Z,21.4
2016-03-05T04:25:57.429Z,21.4
2016-03-05T04:26:59.056Z,21.4
2016-03-05T04:27:59.934Z,21.4
2016-03-05T04:29:01.499Z,21.4
2016-03-05T04:30:03.064Z,21.4
2016-03-05T04:31:04.770Z,21.3
2016-03-05T04:32:06.210Z,21.4
2016-03-05T04:33:07.915Z,21.3
2016-03-05T04:34:09.341Z,21.4
2016-03-05T04:35:10.907Z,21.4
2016-03-05T04:36:12.487Z,21.4
2016-03-05T04:37:14.099Z,21.3
2016-03-05T04:38:15.117Z,21.3
2016-03-05T04:39:16.792Z,21.3
2016-03-05T04:40:18.387Z,21.3
2016-03-05T04:41:19.812Z,21.3
2016-03-05T04:42:21.394Z,21.3
2016-03-05T04:43:23.068Z,21.3
2016-03-05T04:44:24.524Z,21.3
2016-03-05T04:45:26.089Z,21.3
2016-03-05T04:46:27.653Z,21.3
2016-03-05T04:47:29.391Z,21.3
2016-03-05T04:48:30.285Z,21.3
2016-03-05T04:49:31.850Z,21.3
2016-03-05T04:50:33.415Z,21.3
2016-03-05T04:51:35.105Z,21.3
2016-03-05T04:52:36.561Z,21.3
2016-03-05T04:53:38.125Z,21.3
2016-03-05T04:54:39.691Z,21.3
2016-03-05T04:55:41.256Z,21.3
2016-03-05T04:56:42.822Z,21.3
2016-03-05T04:57:44.453Z,21.3
2016-03-05T04:58:45.455Z,21.3
2016-03-05T04:59:47.035Z,21.3
2016-03-05T05:00:48.601Z,21.3
2016-03-05T05:01:50.166Z,21.3
2016-03-05T05:02:51.732Z,21.3
2016-03-05T05:03:53.328Z,21.3
2016-03-05T05:04:54.877Z,21.3
2016-03-05T05:05:56.448Z,21.3
2016-03-05T05:06:58.008Z,21.3
2016-03-05T05:07:59.636Z,21.3
2016-03-05T05:09:00.763Z,21.3
2016-03-05T05:10:02.220Z,21.3
2016-03-05T05:11:03.895Z,21.3
2016-03-05T05:12:05.350Z,21.3
2016-03-05T05:13:07.025Z,21.3
2016-03-05T05:14:08.480Z,21.3
2016-03-05T05:15:10.046Z,21.3
2016-03-05T05:16:11.626Z,21.3
2016-03-05T05:17:13.301Z,21.3
2016-03-05T05:18:14.819Z,21.3
2016-03-05T05:19:15.822Z,21.3
2016-03-05T05:20:17.388Z,21.3
2016-03-05T05:21:18.952Z,21.3
2016-03-05T05:22:20.643Z,21.3
2016-03-05T05:23:22.223Z,21.3
2016-03-05T05:24:23.663Z,21.3
2016-03-05T05:25:25.228Z,21.3
2016-03-05T05:26:26.919Z,21.3
2016-03-05T05:27:28.360Z,21.3
2016-03-05T05:28:30.112Z,21.3
2016-03-05T05:29:31.115Z,21.3
2016-03-05T05:30:32.554Z,21.3
2016-03-05T05:31:34.136Z,21.3
2016-03-05T05:32:35.701Z,21.3
2016-03-05T05:33:37.266Z,21.3
2016-03-05T05:34:38.831Z,21.3
2016-03-05T05:35:40.411Z,21.3
2016-03-05T05:36:41.978Z,21.3
2016-03-05T05:37:43.542Z,21.3
2016-03-05T05:38:45.169Z,21.3
2016-03-05T05:39:46.175Z,21.3
2016-03-05T05:40:47.756Z,21.3
2016-03-05T05:41:49.322Z,21.3
2016-03-05T05:42:50.996Z,21.3
2016-03-05T05:43:52.452Z,21.3
2016-03-05T05:44:54.017Z,21.3
2016-03-05T05:45:55.597Z,21.3
2016-03-05T05:46:57.147Z,21.3
2016-03-05T05:47:58.727Z,21.3
2016-03-05T05:49:00.356Z,21.3
2016-03-05T05:50:01.358Z,21.3
2016-03-05T05:51:02.924Z,21.3
2016-03-05T05:52:04.488Z,21.3
2016-03-05T05:53:06.054Z,21.3
2016-03-05T05:54:07.665Z,21.3
2016-03-05T05:55:09.201Z,21.3
2016-03-05T05:56:10.766Z,21.3
2016-03-05T05:57:12.456Z,21.3
2016-03-05T05:58:13.912Z,21.3
2016-03-05T05:59:15.523Z,21.3
2016-03-05T06:00:16.526Z,21.3
2016-03-05T06:01:18.107Z,21.3
2016-03-05T06:02:19.672Z,21.3
2016-03-05T06:03:21.394Z,21.3
2016-03-05T06:04:22.912Z,21.3
2016-03-05T06:05:24.493Z,21.3
2016-03-05T06:06:26.073Z,21.3
2016-03-05T06:07:27.514Z,21.3
2016-03-05T06:08:29.079Z,21.3
2016-03-05T06:09:30.816Z,21.3
2016-03-05T06:10:31.819Z,21.3
2016-03-05T06:11:33.384Z,21.2
2016-03-05T06:12:34.840Z,21.3
2016-03-05T06:13:36.405Z,21.3
2016-03-05T06:14:37.986Z,21.3
2016-03-05T06:15:39.660Z,21.2
2016-03-05T06:16:41.116Z,21.2
2016-03-05T06:17:42.680Z,21.2
2016-03-05T06:18:44.246Z,21.2
2016-03-05T06:19:45.875Z,21.3
2016-03-05T06:20:46.877Z,21.2
2016-03-05T06:21:48.460Z,21.3
2016-03-05T06:22:50.040Z,21.2
2016-03-05T06:23:51.590Z,21.3
2016-03-05T06:24:53.171Z,21.2
2016-03-05T06:25:54.721Z,21.2
2016-03-05T06:26:56.302Z,21.2
2016-03-05T06:27:57.868Z,21.2
2016-03-05T06:28:59.448Z,21.2
2016-03-05T06:30:01.200Z,21.2
2016-03-05T06:31:02.093Z,21.2
2016-03-05T06:32:03.629Z,21.2
2016-03-05T06:33:05.209Z,21.2
2016-03-05T06:34:06.773Z,21.2
2016-03-05T06:35:08.340Z,21.2
2016-03-05T06:36:09.936Z,21.2
2016-03-05T06:37:11.484Z,21.2
2016-03-05T06:38:13.175Z,21.2
2016-03-05T06:39:14.631Z,21.2
2016-03-05T06:40:16.243Z,21.2
2016-03-05T06:41:17.371Z,21.2
2016-03-05T06:42:18.827Z,21.2
2016-03-05T06:43:20.392Z,21.2
2016-03-05T06:44:21.957Z,21.2
2016-03-05T06:45:23.538Z,21.2
2016-03-05T06:46:25.212Z,21.2
2016-03-05T06:47:26.793Z,21.2
2016-03-05T06:48:28.234Z,21.2
2016-03-05T06:49:29.799Z,21.2
2016-03-05T06:50:31.427Z,21.2
2016-03-05T06:51:32.429Z,21.2
2016-03-05T06:52:34.135Z,21.2
2016-03-05T06:53:35.574Z,21.2
2016-03-05T06:54:37.140Z,21.2
2016-03-05T06:55:38.705Z,21.3
2016-03-05T06:56:40.286Z,21.2
2016-03-05T06:57:41.852Z,21.2
2016-03-05T06:58:43.416Z,21.3
2016-03-05T06:59:44.982Z,21.2
2016-03-05T07:00:46.609Z,21.2
2016-03-05T07:01:47.643Z,21.2
2016-03-05T07:02:49.177Z,21.2
2016-03-05T07:03:50.762Z,21.2
2016-03-05T07:04:52.435Z,21.2
2016-03-05T07:05:53.892Z,21.2
2016-03-05T07:06:55.456Z,21.2
2016-03-05T07:07:57.037Z,21.2
2016-03-05T07:08:58.586Z,21.3
2016-03-05T07:10:00.167Z,21.3
2016-03-05T07:11:01.780Z,21.2
2016-03-05T07:12:02.783Z,21.3
2016-03-05T07:13:04.363Z,21.3
2016-03-05T07:14:06.053Z,21.2
2016-03-05T07:15:07.508Z,21.3
2016-03-05T07:16:09.058Z,21.3
2016-03-05T07:17:10.639Z,21.3
2016-03-05T07:18:12.205Z,21.3
2016-03-05T07:19:13.895Z,21.3
2016-03-05T07:20:15.336Z,21.3
2016-03-05T07:21:16.994Z,21.3
2016-03-05T07:22:18.074Z,21.3
2016-03-05T07:23:19.546Z,21.3
2016-03-05T07:24:21.096Z,21.3
2016-03-05T07:25:22.786Z,21.3
2016-03-05T07:27:25.807Z,21.3
2016-03-05T07:28:27.372Z,21.3
2016-03-05T07:29:28.954Z,21.3
2016-03-05T07:30:30.627Z,21.3
2016-03-05T07:31:32.146Z,21.3
2016-03-05T07:32:33.148Z,21.3
2016-03-05T07:33:34.715Z,21.3
2016-03-05T07:34:36.279Z,21.3
2016-03-05T07:35:37.844Z,21.3
2016-03-05T07:36:39.425Z,21.3
2016-03-05T07:37:40.990Z,21.3
2016-03-05T07:38:42.555Z,21.3
2016-03-05T07:39:44.151Z,21.3
2016-03-05T07:40:45.686Z,21.3
2016-03-05T07:41:47.439Z,21.3
2016-03-05T07:42:48.317Z,21.3
2016-03-05T07:43:49.881Z,21.3
2016-03-05T07:44:51.462Z,21.3
2016-03-05T07:45:53.030Z,21.3
2016-03-05T07:46:54.595Z,21.3
2016-03-05T07:47:56.160Z,21.3
2016-03-05T07:48:57.726Z,21.3
2016-03-05T07:49:59.322Z,21.3
2016-03-05T07:51:00.888Z,21.3
2016-03-05T07:52:02.483Z,21.3
2016-03-05T07:53:03.611Z,21.3
2016-03-05T07:54:05.067Z,21.3
2016-03-05T07:55:06.632Z,21.3
2016-03-05T07:56:08.197Z,21.3
2016-03-05T07:57:09.763Z,21.3
2016-03-05T07:58:11.344Z,21.3
2016-03-05T07:59:12.909Z,21.3
2016-03-05T08:00:14.599Z,21.3
2016-03-05T08:01:16.164Z,21.3
2016-03-05T08:02:17.793Z,21.3
2016-03-05T08:03:18.670Z,21.3
2016-03-05T08:04:20.391Z,21.3
2016-03-05T08:05:21.832Z,21.3
2016-03-05T08:06:23.382Z,21.3
2016-03-05T08:07:24.931Z,21.4
2016-03-05T08:08:26.246Z,21.4
2016-03-05T08:09:27.827Z,21.4
2016-03-05T08:10:29.393Z,21.3
2016-03-05T08:11:30.957Z,21.3
2016-03-05T08:12:32.445Z,21.3
2016-03-05T08:13:33.448Z,21.3
2016-03-05T08:14:34.653Z,21.3
2016-03-05T08:15:36.218Z,21.3
2016-03-05T08:16:37.534Z,21.3
2016-03-05T08:17:38.865Z,21.3
2016-03-05T08:18:40.165Z,21.3
2016-03-05T08:19:41.589Z,21.3
2016-03-05T08:20:42.809Z,21.3
2016-03-05T08:21:44.109Z,21.3
2016-03-05T08:22:45.737Z,21.3
2016-03-05T08:23:46.740Z,21.3
2016-03-05T08:24:48.056Z,21.3
2016-03-05T08:25:49.370Z,21.3
2016-03-05T08:26:50.701Z,21.3
2016-03-05T08:27:52.251Z,21.3
2016-03-05T08:28:53.944Z,21.3
2016-03-05T08:29:55.383Z,21.3
2016-03-05T08:30:56.964Z,21.3
2016-03-05T08:31:58.545Z,21.3
2016-03-05T08:33:00.266Z,21.3
2016-03-05T08:34:01.176Z,21.3
2016-03-05T08:35:02.866Z,21.3
2016-03-05T08:36:04.291Z,21.3
2016-03-05T08:37:05.855Z,21.3
2016-03-05T08:38:07.421Z,21.3
2016-03-05T08:39:09.002Z,21.3
2016-03-05T08:40:10.566Z,21.3
2016-03-05T08:41:12.132Z,21.3
2016-03-05T08:42:13.697Z,21.3
2016-03-05T08:43:15.325Z,21.3
2016-03-05T08:44:16.327Z,21.3
2016-03-05T08:45:17.909Z,21.3
2016-03-05T08:46:19.490Z,21.3
2016-03-05T08:47:21.039Z,21.3
2016-03-05T08:48:22.729Z,21.3
2016-03-05T08:49:24.184Z,21.3
2016-03-05T08:50:25.751Z,21.3
2016-03-05T08:51:27.315Z,21.3
2016-03-05T08:52:28.881Z,21.3
2016-03-05T08:53:30.508Z,21.3
2016-03-05T08:54:31.511Z,21.3
2016-03-05T08:55:33.092Z,21.3
2016-03-05T08:56:34.781Z,21.3
2016-03-05T08:57:36.222Z,21.3
2016-03-05T08:58:37.803Z,21.3
2016-03-05T08:59:39.478Z,21.3
2016-03-05T09:00:40.933Z,21.3
2016-03-05T09:01:42.498Z,21.3
2016-03-05T09:02:44.095Z,21.3
2016-03-05T09:03:45.692Z,21.3
2016-03-05T09:04:46.694Z,21.3
2016-03-05T09:05:48.383Z,21.3
2016-03-05T09:06:49.855Z,21.3
2016-03-05T09:07:51.405Z,21.3
2016-03-05T09:08:52.971Z,21.3
2016-03-05T09:09:54.536Z,21.3
2016-03-05T09:10:56.135Z,21.3
2016-03-05T09:11:57.684Z,21.3
2016-03-05T09:12:59.249Z,21.3
2016-03-05T09:14:00.877Z,21.3
2016-03-05T09:15:02.005Z,21.3
2016-03-05T09:16:03.445Z,21.3
2016-03-05T09:17:05.026Z,21.3
2016-03-05T09:18:06.590Z,21.3
2016-03-05T09:19:08.156Z,21.3
2016-03-05T09:20:09.721Z,21.4
2016-03-05T09:21:11.287Z,21.3
2016-03-05T09:22:12.883Z,21.3
2016-03-05T09:23:14.432Z,21.4
2016-03-05T09:24:16.060Z,21.4
2016-03-05T09:25:17.062Z,21.3
2016-03-05T09:26:18.644Z,21.4
2016-03-05T09:27:20.306Z,21.4
2016-03-05T09:28:21.732Z,21.4
2016-03-05T09:29:23.298Z,21.4
2016-03-05T09:30:24.865Z,21.4
2016-03-05T09:31:26.525Z,21.4
2016-03-05T09:32:27.975Z,21.4
2016-03-05T09:33:29.535Z,21.4
2016-03-05T09:34:31.158Z,21.4
2016-03-05T09:35:32.156Z,21.5
2016-03-05T09:36:33.466Z,21.5
2016-03-05T09:37:35.029Z,21.5
2016-03-05T09:38:36.342Z,21.5
2016-03-05T09:39:37.640Z,21.5
2016-03-05T09:40:38.968Z,21.5
2016-03-05T09:41:40.282Z,21.5
2016-03-05T09:42:41.612Z,21.5
2016-03-05T09:43:42.896Z,21.5
2016-03-05T09:44:44.273Z,21.5
2016-03-05T09:45:45.275Z,21.5
2016-03-05T09:46:46.591Z,21.5
2016-03-05T09:47:47.905Z,21.5
2016-03-05T09:48:49.329Z,21.5
2016-03-05T09:49:50.284Z,21.5
2016-03-05T09:50:51.583Z,21.5
2016-03-05T09:51:52.648Z,21.5
2016-03-05T09:52:53.823Z,21.5
2016-03-05T09:53:54.778Z,21.5
2016-03-05T09:54:56.016Z,21.5
2016-03-05T09:55:56.894Z,21.5
2016-03-05T09:56:57.959Z,21.5
2016-03-05T09:57:59.027Z,21.5
2016-03-05T09:59:00.202Z,21.5
2016-03-05T10:00:01.142Z,21.5
2016-03-05T10:01:02.347Z,21.5
2016-03-05T10:02:03.271Z,21.5
2016-03-05T10:03:04.337Z,21.5
2016-03-05T10:04:05.387Z,21.5
2016-03-05T10:05:06.499Z,21.4
2016-03-05T10:06:07.627Z,21.4
2016-03-05T10:07:08.582Z,21.5
2016-03-05T10:08:09.632Z,21.4
2016-03-05T10:09:10.696Z,21.4
2016-03-05T10:10:11.762Z,21.4
2016-03-05T10:11:12.826Z,21.5
2016-03-05T10:12:13.877Z,21.4
2016-03-05T10:13:15.207Z,21.5
2016-03-05T10:14:16.257Z,21.5
2016-03-05T10:15:17.620Z,21.5
2016-03-05T10:16:18.638Z,21.5
2016-03-05T10:17:19.687Z,21.5
2016-03-05T10:18:20.877Z,21.5
2016-03-05T10:19:21.833Z,21.5
2016-03-05T10:20:23.008Z,21.5
2016-03-05T10:21:23.948Z,21.4
2016-03-05T10:22:25.029Z,21.5
2016-03-05T10:23:26.313Z,21.5
2016-03-05T10:24:27.487Z,21.5
2016-03-05T10:25:28.521Z,21.5
2016-03-05T10:26:29.524Z,21.5
2016-03-05T10:27:30.558Z,21.5
2016-03-05T10:28:31.889Z,21.6
2016-03-05T10:29:33.314Z,21.6
2016-03-05T10:30:34.503Z,21.5
2016-03-05T10:31:35.928Z,21.5
2016-03-05T10:32:37.149Z,21.6
2016-03-05T10:33:38.558Z,21.6
2016-03-05T10:34:39.748Z,21.5
2016-03-05T10:35:41.126Z,21.6
2016-03-05T10:36:42.129Z,21.5
2016-03-05T10:37:43.444Z,21.6
2016-03-05T10:38:44.775Z,21.6
2016-03-05T10:39:46.074Z,21.6
2016-03-05T10:40:47.140Z,21.6
2016-03-05T10:41:48.439Z,21.7
2016-03-05T10:42:49.754Z,21.7
2016-03-05T10:43:51.084Z,21.7
2016-03-05T10:44:52.401Z,21.7
2016-03-05T10:45:53.748Z,21.7
2016-03-05T10:46:54.875Z,21.7
2016-03-05T10:47:56.206Z,21.7
2016-03-05T10:48:57.505Z,21.7
2016-03-05T10:49:58.711Z,21.7
2016-03-05T10:50:59.761Z,21.7
2016-03-05T10:52:01.187Z,21.7
2016-03-05T10:53:02.144Z,21.7
2016-03-05T10:54:03.443Z,21.7
2016-03-05T10:55:04.758Z,21.7
2016-03-05T10:56:06.261Z,21.7
2016-03-05T10:57:07.138Z,21.7
2016-03-05T10:58:08.579Z,21.7
2016-03-05T10:59:09.768Z,21.7
2016-03-05T11:00:11.194Z,21.7
2016-03-05T11:01:12.399Z,21.8
2016-03-05T11:02:14.121Z,21.8
2016-03-05T11:03:15.560Z,21.9
2016-03-05T11:04:17.126Z,22
2016-03-05T11:05:15.019Z,22
2016-03-05T11:06:12.710Z,22.1
2016-03-05T11:07:13.821Z,22.1
2016-03-05T11:08:11.841Z,22.2
2016-03-05T11:09:09.733Z,22.3
2016-03-05T11:10:07.751Z,22.3
2016-03-05T11:11:05.785Z,22.3
2016-03-05T11:12:04.053Z,22.3
2016-03-05T11:13:02.354Z,22.3
2016-03-05T11:14:00.604Z,22.4
2016-03-05T11:14:58.996Z,22.5
2016-03-05T11:15:57.328Z,22.5
2016-03-05T11:16:58.206Z,22.5
2016-03-05T11:17:56.598Z,22.5
2016-03-05T11:18:54.898Z,22.6
2016-03-05T11:19:53.025Z,22.6
2016-03-05T11:20:51.044Z,22.6
2016-03-05T11:21:49.063Z,22.7
2016-03-05T11:22:47.065Z,22.7
2016-03-05T11:23:45.209Z,22.7
2016-03-05T11:24:43.117Z,22.8
2016-03-05T11:25:41.198Z,22.8
2016-03-05T11:26:42.310Z,22.8
2016-03-05T11:27:40.078Z,22.8
2016-03-05T11:28:37.721Z,22.8
2016-03-05T11:29:35.615Z,22.9
2016-03-05T11:30:37.056Z,22.9
2016-03-05T11:31:38.371Z,22.8
2016-03-05T11:32:39.420Z,22.8
2016-03-05T11:33:40.485Z,22.7
2016-03-05T11:34:41.285Z,22.7
2016-03-05T11:35:42.006Z,22.6
2016-03-05T11:36:43.024Z,22.5
2016-03-05T11:37:43.216Z,22.5
2016-03-05T11:38:43.374Z,22.5
2016-03-05T11:39:43.299Z,22.4
2016-03-05T11:40:43.348Z,22.4
2016-03-05T11:41:43.507Z,22.3
2016-03-05T11:42:43.556Z,22.3
2016-03-05T11:43:43.481Z,22.2
2016-03-05T11:44:43.515Z,22.2
2016-03-05T11:45:43.862Z,22.2
2016-03-05T11:46:44.880Z,22.2
2016-03-05T11:47:45.179Z,22.2
2016-03-05T11:48:45.838Z,22.3
2016-03-05T11:49:46.278Z,22.2
2016-03-05T11:50:46.829Z,22.3
2016-03-05T11:51:47.502Z,22.3
2016-03-05T11:52:47.943Z,22.3
2016-03-05T11:53:48.601Z,22.3
2016-03-05T11:54:49.042Z,22.3
2016-03-05T11:55:49.919Z,22.4
2016-03-05T11:56:51.016Z,22.3
2016-03-05T11:57:51.831Z,22.3
2016-03-05T11:58:52.380Z,22.4
2016-03-05T11:59:52.822Z,22.4
2016-03-05T12:00:53.370Z,22.4
2016-03-05T12:01:53.920Z,22.4
2016-03-05T12:02:54.594Z,22.4
2016-03-05T12:03:55.035Z,22.4
2016-03-05T12:04:55.335Z,22.5
2016-03-05T12:05:55.821Z,22.5
2016-03-05T12:06:56.716Z,22.5
2016-03-05T12:07:56.764Z,22.5
2016-03-05T12:08:56.924Z,22.5
2016-03-05T12:09:56.849Z,22.6
2016-03-05T12:10:56.897Z,22.6
2016-03-05T12:11:56.978Z,22.6
2016-03-05T12:12:56.981Z,22.6
2016-03-05T12:13:56.515Z,22.6
2016-03-05T12:14:56.064Z,22.6
2016-03-05T12:15:55.661Z,22.5
2016-03-05T12:16:56.663Z,22.5
2016-03-05T12:17:56.323Z,22.5
2016-03-05T12:18:55.731Z,22.4
2016-03-05T12:19:55.281Z,22.4
2016-03-05T12:20:54.815Z,22.4
2016-03-05T12:21:54.364Z,22.4
2016-03-05T12:22:53.899Z,22.4
2016-03-05T12:23:53.432Z,22.4
2016-03-05T12:24:52.998Z,22.4
2016-03-05T12:25:52.845Z,22.5
2016-03-05T12:26:53.831Z,22.5
2016-03-05T12:27:53.755Z,22.5
2016-03-05T12:28:53.680Z,22.5
2016-03-05T12:29:53.839Z,22.5
2016-03-05T12:30:53.764Z,22.5
2016-03-05T12:31:53.814Z,22.5
2016-03-05T12:32:53.863Z,22.6
2016-03-05T12:33:53.913Z,22.6
2016-03-05T12:34:53.946Z,22.7
2016-03-05T12:35:54.043Z,22.7
2016-03-05T12:36:55.061Z,22.7
2016-03-05T12:37:55.329Z,22.7
2016-03-05T12:38:55.895Z,22.8
2016-03-05T12:39:56.569Z,22.8
2016-03-05T12:40:56.994Z,22.9
2016-03-05T12:41:57.293Z,22.9
2016-03-05T12:42:57.718Z,22.9
2016-03-05T12:43:57.893Z,22.9
2016-03-05T12:44:58.317Z,22.9
2016-03-05T12:45:58.538Z,23
2016-03-05T12:46:59.541Z,23
2016-03-05T12:47:59.857Z,23
2016-03-05T12:49:00.156Z,23.1
2016-03-05T12:50:00.206Z,23.1
2016-03-05T12:51:00.364Z,23.1
2016-03-05T12:52:00.290Z,23.1
2016-03-05T12:53:00.464Z,23.1
2016-03-05T12:54:00.387Z,23.2
2016-03-05T12:55:00.438Z,23.2
2016-03-05T12:56:00.659Z,23.2
2016-03-05T12:57:01.537Z,23.2
2016-03-05T12:58:01.586Z,23.3
2016-03-05T12:59:01.620Z,23.3
2016-03-05T13:00:01.670Z,23.3
2016-03-05T13:01:01.720Z,23.3
2016-03-05T13:02:01.769Z,23.3
2016-03-05T13:03:01.819Z,23.3
2016-03-05T13:04:01.852Z,23.3
2016-03-05T13:05:02.027Z,23.4
2016-03-05T13:06:01.999Z,23.3
2016-03-05T13:07:03.016Z,23.3
2016-03-05T13:08:03.051Z,23.3
2016-03-05T13:09:03.100Z,23.4
2016-03-05T13:10:03.149Z,23.3
2016-03-05T13:11:03.199Z,23.4
2016-03-05T13:12:03.233Z,23.4
2016-03-05T13:13:03.408Z,23.4
2016-03-05T13:14:03.457Z,23.4
2016-03-05T13:15:03.366Z,23.4
2016-03-05T13:16:03.572Z,23.4
2016-03-05T13:17:04.466Z,23.4
2016-03-05T13:18:04.765Z,23.4
2016-03-05T13:19:04.815Z,23.4
2016-03-05T13:20:04.989Z,23.4
2016-03-05T13:21:05.023Z,23.5
2016-03-05T13:22:05.073Z,23.4
2016-03-05T13:23:05.122Z,23.4
2016-03-05T13:24:05.016Z,23.5
2016-03-05T13:25:05.346Z,23.5
2016-03-05T13:26:05.428Z,23.5
2016-03-05T13:27:06.586Z,23.5
2016-03-05T13:28:06.979Z,23.5
2016-03-05T13:29:07.639Z,23.5
2016-03-05T13:30:07.814Z,23.5
2016-03-05T13:31:08.237Z,23.5
2016-03-05T13:32:08.536Z,23.5
2016-03-05T13:33:08.727Z,23.5
2016-03-05T13:34:08.905Z,23.5
2016-03-05T13:35:08.827Z,23.5